الصفحة الرئيسية
METAR-TAF:

METAR-TAF

مطار :

مطار فاس سايس الدولي

فاس, المغرب

دائرة عرض: 33-56N, خط طول: 004-59W, ارتفاع: 579 متر

مراقبة الطقس الحالي

تاريخ ووقت الإصدار 37 دقيقة قبل الساعة 10:00UTC
ريح 7 عقدة من الغرب/الشمال الغربي, الاتجاه يتراوح بين الجنوب الغربي و الشمال
درجة الحرارة 22°درجة مئوية
الرطوبة 50%
ضغط 1017 hPa
الرؤية 10 كم أو أكثر
غيوم قليلة على ارتفاع 1300 قدم
غيوم متفرقة على ارتفاع 2600 قدم

METAR: GMFF 211000Z 30007KT 220V010 9999 FEW013 SCT026 22/11 Q1017 NOSIG

زمن: 10:37 (10:37 UTC)

توقعات

تاريخ ووقت الإصدار 5ساعات و 37 دقيقة قبل الساعة 05:00UTC
التوقعات صالحة من21 الساعة 06 UTC إلى 22 الساعة 12 UTC
ريح 6 عقدة من الجنوب/الجنوب الغربي
الرؤية: 8000 متر
غيوم متفرقة على ارتفاع 2600 قدم
أصبح
من 21 الساعة 12 UTC إلى 21 الساعة 15 UTC
ريح 10 عقدة من الشمال الغربي
أصبح
من 21 الساعة 18 UTC إلى 21 الساعة 22 UTC
ريح 6 عقدة من الغرب/الشمال الغربي
الرؤية 10 كم أو أكثر
الغيوم لا تقل 1500 م ولا وجود لمزنة ركامية السحاب الأسود

TAF: GMFF 210500Z 2106/2212 20006KT 8000 SCT026 BECMG 2112/2115 32010KT BECMG 2118/2122 30006KT CAVOK

أرصاد الطقس والتوقعات من أكثر من 4000 مطار (تقارير الطقس للمطار METAR والتنبؤ بالطقس بالمطارTAF).

المحطات المتاحة هي النقط الصفراء والحمراء على الخريطة.

حرك المؤشر فوق النقطة لمعرفة اسم المحطة.

ثم انقر لمعرفة أرصاد وتوقعات الطقس.

لتغيير الخارطة: اضغط على الأزرار الخضراء مع رمز الصليب الأسود للتكبير. على الزر الأخضر مع شرطة للتصغير، أو على الأسهم الخضراء للخرائط المجاورة.


METAR-TAF: